Time;durP1;ratioP1;P1;durP2;ratioP2;P2;SDS_P1;SDS_P2;PMS_P1;PMS_P2;Temp;Humidity;BMP_temperature;BMP_pressure;BME280_temperature;BME280_humidity;BME280_pressure;Samples;Min_cycle;Max_cycle;Signal;HPM_P1;HPM_P2
2023/06/07 00:01:26;;;;;;;3.65;1.90;;;;;;;;;;12914238;23;20188;-81
2023/06/07 00:06:32;;;;;;;3.67;2.00;;;;;;;;;;12888385;23;20625;-81
2023/06/07 00:11:36;;;;;;;3.75;1.65;;;;;;;;;;12889118;23;20028;-81
2023/06/07 00:16:41;;;;;;;3.75;1.65;;;;;;;;;;12887913;23;20255;-81
2023/06/07 00:21:44;;;;;;;4.78;1.75;;;;;;;;;;12930430;23;20318;-81
2023/06/07 00:26:48;;;;;;;4.28;1.63;;;;;;;;;;12915334;22;20024;-81
2023/06/07 00:31:53;;;;;;;3.40;1.63;;;;;;;;;;12888009;23;20031;-81
2023/06/07 00:36:56;;;;;;;3.00;1.70;;;;;;;;;;12886874;23;20036;-80
2023/06/07 00:42:00;;;;;;;2.83;1.58;;;;;;;;;;12887673;23;20051;-81
2023/06/07 00:47:05;;;;;;;2.10;1.52;;;;;;;;;;12913497;23;20020;-81
2023/06/07 00:52:09;;;;;;;2.13;1.40;;;;;;;;;;12888810;23;20034;-80
2023/06/07 00:57:16;;;;;;;3.78;1.40;;;;;;;;;;12887857;23;20405;-80
2023/06/07 01:02:21;;;;;;;4.65;1.58;;;;;;;;;;12915585;23;20074;-80
2023/06/07 01:07:26;;;;;;;2.00;1.17;;;;;;;;;;12887569;23;20480;-81
2023/06/07 01:12:34;;;;;;;2.40;1.15;;;;;;;;;;12888235;23;20054;-80
2023/06/07 01:17:44;;;;;;;2.65;1.40;;;;;;;;;;12925566;22;20028;-80
2023/06/07 01:22:49;;;;;;;3.38;1.50;;;;;;;;;;12913008;22;20043;-81
2023/06/07 01:27:56;;;;;;;1.75;1.17;;;;;;;;;;12887922;23;20047;-81
2023/06/07 01:33:02;;;;;;;1.80;1.20;;;;;;;;;;12890544;22;20428;-81
2023/06/07 01:38:06;;;;;;;1.30;1.10;;;;;;;;;;12898469;23;20078;-81
2023/06/07 01:43:12;;;;;;;2.30;1.13;;;;;;;;;;12898319;22;20028;-81
2023/06/07 01:48:16;;;;;;;1.75;1.25;;;;;;;;;;12918500;23;20177;-81
2023/06/07 01:53:20;;;;;;;2.42;1.20;;;;;;;;;;12887081;22;20024;-81
2023/06/07 01:58:31;;;;;;;1.35;0.98;;;;;;;;;;12920752;23;20328;-81
2023/06/07 02:03:43;;;;;;;2.13;1.42;;;;;;;;;;12885955;22;20035;-81
2023/06/07 02:08:55;;;;;;;1.58;0.88;;;;;;;;;;12886469;23;20051;-80
2023/06/07 02:14:00;;;;;;;1.55;0.93;;;;;;;;;;12885778;22;20024;-81
2023/06/07 02:19:06;;;;;;;1.35;0.90;;;;;;;;;;12910430;23;20043;-81
2023/06/07 02:24:25;;;;;;;3.03;1.20;;;;;;;;;;12886099;22;20031;-80
2023/06/07 02:29:37;;;;;;;2.38;0.95;;;;;;;;;;12916565;23;20030;-81
2023/06/07 02:34:41;;;;;;;1.65;1.10;;;;;;;;;;12912649;22;20032;-80
2023/06/07 02:39:45;;;;;;;1.38;0.93;;;;;;;;;;12885904;23;20035;-80
2023/06/07 02:44:49;;;;;;;1.25;1.00;;;;;;;;;;12914965;22;20091;-81
2023/06/07 02:49:53;;;;;;;1.05;0.85;;;;;;;;;;12914465;23;20020;-80
2023/06/07 02:54:57;;;;;;;1.48;1.10;;;;;;;;;;12885292;22;20503;-81
2023/06/07 03:00:11;;;;;;;2.03;1.10;;;;;;;;;;12885332;23;20031;-80
2023/06/07 03:05:40;;;;;;;1.60;1.08;;;;;;;;;;12911668;22;20016;-81
2023/06/07 03:10:46;;;;;;;1.85;1.10;;;;;;;;;;12885495;23;20481;-81
2023/06/07 03:15:59;;;;;;;3.05;1.17;;;;;;;;;;12910319;22;20095;-81
2023/06/07 03:21:06;;;;;;;1.85;1.15;;;;;;;;;;12884926;23;20020;-80
2023/06/07 03:26:14;;;;;;;1.83;1.30;;;;;;;;;;12885305;23;20067;-81
2023/06/07 03:31:19;;;;;;;2.25;1.10;;;;;;;;;;12928611;23;20460;-81
2023/06/07 03:36:31;;;;;;;2.28;1.08;;;;;;;;;;12854323;23;20071;-81
2023/06/07 03:41:36;;;;;;;1.33;1.00;;;;;;;;;;12876525;23;20024;-81
2023/06/07 03:46:44;;;;;;;1.98;1.15;;;;;;;;;;12885151;23;20028;-81
2023/06/07 03:51:50;;;;;;;2.75;1.08;;;;;;;;;;12884334;23;20078;-81
2023/06/07 03:56:56;;;;;;;1.57;1.20;;;;;;;;;;12885365;23;20028;-81
2023/06/07 04:02:03;;;;;;;;;;;;;;;;;;12926744;23;20051;-81
2023/06/07 04:07:08;;;;;;;1.20;1.00;;;;;;;;;;12911065;22;19939;-81
2023/06/07 04:12:15;;;;;;;3.20;0.85;;;;;;;;;;12888235;23;20024;-81
2023/06/07 04:17:22;;;;;;;1.42;1.00;;;;;;;;;;12889353;23;20111;-81
2023/06/07 04:22:26;;;;;;;2.40;1.40;;;;;;;;;;12889334;23;20020;-81
2023/06/07 04:27:30;;;;;;;1.75;1.20;;;;;;;;;;12889322;23;20027;-81
2023/06/07 04:32:37;;;;;;;1.00;0.90;;;;;;;;;;12887597;23;20043;-81
2023/06/07 04:37:45;;;;;;;1.80;1.27;;;;;;;;;;12888381;23;20395;-81
2023/06/07 04:42:57;;;;;;;2.55;1.20;;;;;;;;;;12888770;22;20028;-80
2023/06/07 04:48:04;;;;;;;1.10;0.90;;;;;;;;;;12888364;23;20048;-82
2023/06/07 04:53:10;;;;;;;1.45;0.95;;;;;;;;;;12934412;22;20398;-81
2023/06/07 04:58:15;;;;;;;1.60;0.85;;;;;;;;;;12898096;23;20643;-80
2023/06/07 05:03:24;;;;;;;2.10;1.00;;;;;;;;;;12885416;22;20550;-81
2023/06/07 05:08:32;;;;;;;0.85;0.80;;;;;;;;;;12888233;23;20135;-80
2023/06/07 05:13:36;;;;;;;3.28;1.00;;;;;;;;;;12888587;22;20050;-81
2023/06/07 05:18:42;;;;;;;2.80;1.00;;;;;;;;;;12912289;23;20074;-80
2023/06/07 05:23:46;;;;;;;1.55;1.05;;;;;;;;;;12887357;22;20111;-80
2023/06/07 05:28:50;;;;;;;1.27;1.05;;;;;;;;;;12919968;23;20031;-80
2023/06/07 05:33:55;;;;;;;1.45;0.98;;;;;;;;;;12886669;22;20035;-81
2023/06/07 05:39:00;;;;;;;3.40;1.10;;;;;;;;;;12888024;23;20531;-80
2023/06/07 05:44:04;;;;;;;1.92;1.13;;;;;;;;;;12887117;22;20032;-80
2023/06/07 05:49:09;;;;;;;3.40;1.35;;;;;;;;;;12887226;23;20020;-80
2023/06/07 05:54:13;;;;;;;2.30;1.20;;;;;;;;;;12887396;22;20426;-80
2023/06/07 05:59:17;;;;;;;1.10;0.98;;;;;;;;;;12887373;23;20103;-80
2023/06/07 06:04:22;;;;;;;1.13;0.80;;;;;;;;;;12917433;22;20361;-80
2023/06/07 06:09:26;;;;;;;2.63;1.00;;;;;;;;;;12887368;23;20358;-80
2023/06/07 06:14:29;;;;;;;1.10;0.82;;;;;;;;;;12900914;22;20357;-80
2023/06/07 06:19:34;;;;;;;1.15;1.05;;;;;;;;;;12913508;23;20020;-80
2023/06/07 06:24:38;;;;;;;1.67;0.80;;;;;;;;;;12887553;22;20023;-80
2023/06/07 06:29:42;;;;;;;1.48;1.10;;;;;;;;;;12908965;23;20039;-80
2023/06/07 06:34:47;;;;;;;2.72;1.50;;;;;;;;;;12904532;22;20032;-80
2023/06/07 06:39:51;;;;;;;1.65;1.23;;;;;;;;;;12912923;23;20031;-80
2023/06/07 06:44:55;;;;;;;1.33;0.98;;;;;;;;;;12914114;22;20031;-80
2023/06/07 06:50:00;;;;;;;2.17;1.10;;;;;;;;;;12886496;23;20024;-80
2023/06/07 06:55:08;;;;;;;1.88;1.23;;;;;;;;;;12912373;22;20402;-80
2023/06/07 07:00:13;;;;;;;1.40;1.05;;;;;;;;;;12886797;23;20031;-80
2023/06/07 07:05:18;;;;;;;2.05;1.20;;;;;;;;;;12911223;22;20103;-82
2023/06/07 07:10:21;;;;;;;3.15;0.98;;;;;;;;;;12913638;23;20028;-81
2023/06/07 07:15:27;;;;;;;2.30;1.60;;;;;;;;;;12912946;22;20054;-81
2023/06/07 07:20:32;;;;;;;2.47;1.55;;;;;;;;;;12932681;23;20016;-81
2023/06/07 07:25:36;;;;;;;2.85;1.25;;;;;;;;;;12885332;22;20458;-81
2023/06/07 07:30:39;;;;;;;2.65;1.70;;;;;;;;;;12884766;23;20024;-81
2023/06/07 07:35:44;;;;;;;2.92;1.83;;;;;;;;;;12931101;22;20039;-82
2023/06/07 07:40:48;;;;;;;3.30;1.40;;;;;;;;;;12931091;23;20020;-81
2023/06/07 07:45:51;;;;;;;2.25;1.50;;;;;;;;;;12886203;23;20024;-81
2023/06/07 07:50:59;;;;;;;2.08;1.23;;;;;;;;;;12889395;23;20016;-81
2023/06/07 07:56:03;;;;;;;1.88;1.42;;;;;;;;;;12917150;22;20016;-82
2023/06/07 08:01:08;;;;;;;3.88;1.90;;;;;;;;;;12934208;23;20026;-81
2023/06/07 08:06:14;;;;;;;3.00;1.70;;;;;;;;;;12947164;22;20016;-81
2023/06/07 08:11:17;;;;;;;1.83;1.20;;;;;;;;;;12902574;23;20447;-82
2023/06/07 08:16:21;;;;;;;2.20;1.38;;;;;;;;;;12890864;23;20111;-81
2023/06/07 08:21:28;;;;;;;2.65;1.33;;;;;;;;;;12889265;23;20038;-82
2023/06/07 08:26:32;;;;;;;2.33;1.65;;;;;;;;;;12931047;22;20047;-82
2023/06/07 08:31:35;;;;;;;3.75;2.13;;;;;;;;;;12884366;22;20359;-83
2023/06/07 08:36:41;;;;;;;2.05;1.70;;;;;;;;;;12858303;23;20051;-84
2023/06/07 08:41:45;;;;;;;2.53;1.67;;;;;;;;;;12883768;23;20103;-84
2023/06/07 08:46:49;;;;;;;3.75;1.60;;;;;;;;;;12881113;23;20032;-84
2023/06/07 08:51:56;;;;;;;2.47;1.40;;;;;;;;;;12925885;23;20074;-84
2023/06/07 08:57:06;;;;;;;3.40;1.60;;;;;;;;;;12881901;23;20090;-84
2023/06/07 09:02:09;;;;;;;2.00;1.58;;;;;;;;;;12873050;23;20111;-84
2023/06/07 09:07:14;;;;;;;5.32;2.70;;;;;;;;;;12876983;23;20031;-84
2023/06/07 09:12:18;;;;;;;3.88;2.17;;;;;;;;;;12878786;23;20415;-84
2023/06/07 09:17:22;;;;;;;1.60;1.50;;;;;;;;;;12918001;22;20023;-84
2023/06/07 09:22:27;;;;;;;1.50;1.25;;;;;;;;;;12877553;23;20095;-83
2023/06/07 09:27:30;;;;;;;1.48;1.20;;;;;;;;;;12906353;22;20024;-84
2023/06/07 09:32:38;;;;;;;1.25;1.13;;;;;;;;;;12906890;23;20047;-83
2023/06/07 09:37:47;;;;;;;2.45;1.58;;;;;;;;;;12878003;23;20520;-84
2023/06/07 09:43:00;;;;;;;1.35;1.25;;;;;;;;;;12878115;23;20020;-84
2023/06/07 09:48:06;;;;;;;3.75;1.75;;;;;;;;;;12914875;22;20055;-85
2023/06/07 09:53:11;;;;;;;1.55;1.33;;;;;;;;;;12880219;23;20074;-84
2023/06/07 09:58:22;;;;;;;1.77;1.40;;;;;;;;;;12876370;23;20209;-84
2023/06/07 10:03:29;;;;;;;3.93;2.20;;;;;;;;;;12877653;23;20032;-85
2023/06/07 10:08:34;;;;;;;2.17;1.75;;;;;;;;;;12878652;23;20158;-84
2023/06/07 10:13:38;;;;;;;1.45;1.15;;;;;;;;;;12878755;22;20368;-86
2023/06/07 10:18:43;;;;;;;1.95;1.20;;;;;;;;;;12877182;23;20345;-87
2023/06/07 10:23:51;;;;;;;3.10;1.80;;;;;;;;;;12913948;22;20081;-86
2023/06/07 10:28:59;;;;;;;2.72;1.50;;;;;;;;;;12912467;23;20020;-87
2023/06/07 10:34:07;;;;;;;3.20;1.50;;;;;;;;;;12904105;22;20028;-83
2023/06/07 10:39:12;;;;;;;1.98;1.25;;;;;;;;;;12880871;23;20023;-84
2023/06/07 10:44:15;;;;;;;2.20;1.40;;;;;;;;;;12880475;22;20046;-84
2023/06/07 10:49:37;;;;;;;1.98;1.52;;;;;;;;;;12904461;23;20040;-82
2023/06/07 10:54:42;;;;;;;2.72;1.80;;;;;;;;;;12905763;22;20471;-82
2023/06/07 10:59:46;;;;;;;;;;;;;;;;;;12879866;23;20031;-83
2023/06/07 11:04:54;;;;;;;2.05;1.52;;;;;;;;;;12876691;22;19970;-83
2023/06/07 11:10:36;;;;;;;1.90;1.40;;;;;;;;;;12905056;23;20090;-82
2023/06/07 11:15:42;;;;;;;2.28;1.20;;;;;;;;;;12877428;22;20027;-83
2023/06/07 11:20:51;;;;;;;1.67;1.52;;;;;;;;;;12904363;23;20016;-83
2023/06/07 11:25:58;;;;;;;3.05;1.70;;;;;;;;;;12880837;22;20478;-84
2023/06/07 11:31:02;;;;;;;1.58;1.35;;;;;;;;;;12878690;23;20099;-83
2023/06/07 11:36:06;;;;;;;1.20;1.10;;;;;;;;;;12874919;22;20585;-84
2023/06/07 11:41:11;;;;;;;5.78;1.60;;;;;;;;;;12879971;23;20031;-84
2023/06/07 11:46:15;;;;;;;1.65;1.38;;;;;;;;;;12921851;22;20090;-84
2023/06/07 11:51:19;;;;;;;2.25;1.40;;;;;;;;;;12880303;23;20091;-83
2023/06/07 11:56:25;;;;;;;2.45;1.80;;;;;;;;;;12880510;22;20066;-84
2023/06/07 12:01:29;;;;;;;2.15;1.48;;;;;;;;;;12880922;23;20024;-83
2023/06/07 12:06:34;;;;;;;2.28;1.70;;;;;;;;;;12878493;22;20016;-84
2023/06/07 12:11:39;;;;;;;2.13;1.60;;;;;;;;;;12878591;23;20094;-85
2023/06/07 12:16:42;;;;;;;1.98;1.40;;;;;;;;;;12918284;22;20580;-85
2023/06/07 12:21:45;;;;;;;2.05;1.60;;;;;;;;;;12874148;23;20020;-83
2023/06/07 12:26:56;;;;;;;1.50;1.10;;;;;;;;;;12872979;23;20091;-83
2023/06/07 12:32:02;;;;;;;3.55;1.25;;;;;;;;;;12899219;23;20043;-83
2023/06/07 12:37:05;;;;;;;;;;;;;;;;;;12877003;23;20050;-82
2023/06/07 12:42:10;;;;;;;2.35;1.60;;;;;;;;;;12916573;23;20353;-83
2023/06/07 12:47:13;;;;;;;;;;;;;;;;;;12901590;22;20077;-82
2023/06/07 12:52:17;;;;;;;1.70;1.25;;;;;;;;;;12900645;23;19954;-82
2023/06/07 12:57:22;;;;;;;2.30;1.27;;;;;;;;;;12876129;23;20043;-82
2023/06/07 13:02:26;;;;;;;2.90;1.70;;;;;;;;;;12877676;23;20472;-84
2023/06/07 13:07:29;;;;;;;1.95;1.50;;;;;;;;;;12885441;23;20096;-83
2023/06/07 13:12:34;;;;;;;2.35;1.70;;;;;;;;;;12916536;23;20020;-85
2023/06/07 13:17:37;;;;;;;2.97;1.58;;;;;;;;;;12913884;23;20127;-85
2023/06/07 13:22:41;;;;;;;1.90;1.40;;;;;;;;;;12912641;23;20026;-83
2023/06/07 13:27:47;;;;;;;3.08;1.15;;;;;;;;;;12879299;23;20043;-82
2023/06/07 13:32:52;;;;;;;1.20;1.02;;;;;;;;;;12877870;23;20463;-83
2023/06/07 13:37:55;;;;;;;2.80;1.33;;;;;;;;;;12914027;22;20055;-83
2023/06/07 13:43:00;;;;;;;1.45;1.35;;;;;;;;;;12904236;23;20031;-83
2023/06/07 13:48:05;;;;;;;1.65;1.02;;;;;;;;;;12908147;22;20039;-82
2023/06/07 13:53:08;;;;;;;2.20;1.17;;;;;;;;;;12879199;23;20032;-83
2023/06/07 13:58:13;;;;;;;1.08;1.00;;;;;;;;;;12913343;22;20024;-83
2023/06/07 14:03:16;;;;;;;1.30;1.08;;;;;;;;;;12878495;23;20051;-82
2023/06/07 14:08:20;;;;;;;1.30;1.20;;;;;;;;;;12913268;22;20024;-82
2023/06/07 14:13:24;;;;;;;1.10;1.00;;;;;;;;;;12876511;23;20355;-83
2023/06/07 14:18:28;;;;;;;0.85;0.85;;;;;;;;;;12879130;23;20024;-82
2023/06/07 14:23:31;;;;;;;1.13;1.02;;;;;;;;;;12878887;23;20528;-82
2023/06/07 14:28:36;;;;;;;1.63;1.38;;;;;;;;;;12878255;23;20031;-82
2023/06/07 14:33:39;;;;;;;1.65;1.20;;;;;;;;;;12857591;22;20025;-87
2023/06/07 14:38:43;;;;;;;0.93;0.82;;;;;;;;;;12877303;23;20027;-87
2023/06/07 14:43:48;;;;;;;1.20;1.10;;;;;;;;;;12876421;22;20036;-87
2023/06/07 14:48:51;;;;;;;1.85;1.60;;;;;;;;;;12874426;23;20082;-84
2023/06/07 14:53:55;;;;;;;1.27;1.17;;;;;;;;;;12901024;22;20028;-84
2023/06/07 14:59:00;;;;;;;1.52;1.17;;;;;;;;;;12876319;23;20028;-84
2023/06/07 15:04:04;;;;;;;1.33;1.23;;;;;;;;;;12876067;22;20055;-84
2023/06/07 15:09:07;;;;;;;1.42;1.00;;;;;;;;;;12876276;23;20074;-85
2023/06/07 15:14:12;;;;;;;1.30;1.00;;;;;;;;;;12874789;22;20020;-84
2023/06/07 15:19:16;;;;;;;1.90;1.23;;;;;;;;;;12882747;23;20020;-87
2023/06/07 15:24:19;;;;;;;1.70;1.55;;;;;;;;;;12878277;22;20024;-86
2023/06/07 15:29:24;;;;;;;1.60;1.48;;;;;;;;;;12879893;23;20020;-86
2023/06/07 15:34:30;;;;;;;1.83;1.60;;;;;;;;;;12878319;22;20071;-87
2023/06/07 15:39:33;;;;;;;3.33;1.52;;;;;;;;;;12879870;23;20028;-88
2023/06/07 15:44:38;;;;;;;1.60;1.50;;;;;;;;;;12906565;22;20028;-88
2023/06/07 15:49:42;;;;;;;3.85;2.00;;;;;;;;;;12904627;23;20028;-86
2023/06/07 15:54:46;;;;;;;2.05;1.85;;;;;;;;;;12906555;22;20027;-89
2023/06/07 15:59:51;;;;;;;3.95;2.20;;;;;;;;;;12903397;23;20058;-86
2023/06/07 16:04:54;;;;;;;2.40;1.93;;;;;;;;;;12877583;22;20032;-88
2023/06/07 16:09:58;;;;;;;2.22;2.00;;;;;;;;;;12879348;23;20039;-87
2023/06/07 16:15:03;;;;;;;2.15;1.88;;;;;;;;;;12907283;22;20024;-87
2023/06/07 16:20:07;;;;;;;;;;;;;;;;;;12879165;23;20043;-88
2023/06/07 16:25:11;;;;;;;1.52;1.30;;;;;;;;;;12904619;22;19922;-86
2023/06/07 16:30:16;;;;;;;1.50;1.40;;;;;;;;;;12908274;23;20074;-87
2023/06/07 16:35:19;;;;;;;2.13;1.60;;;;;;;;;;12884287;22;20016;-86
2023/06/07 16:40:23;;;;;;;1.45;1.30;;;;;;;;;;12885924;23;20032;-88
2023/06/07 16:45:28;;;;;;;3.83;1.77;;;;;;;;;;12883394;22;20028;-87
2023/06/07 16:50:32;;;;;;;1.80;1.70;;;;;;;;;;12913611;23;20027;-87
2023/06/07 16:55:36;;;;;;;1.73;1.45;;;;;;;;;;12908694;22;20028;-87
2023/06/07 17:00:41;;;;;;;2.60;1.77;;;;;;;;;;12883884;23;20016;-90
2023/06/07 17:05:45;;;;;;;2.33;1.60;;;;;;;;;;12883413;22;20024;-88
2023/06/07 17:10:48;;;;;;;2.28;1.50;;;;;;;;;;12880252;23;20024;-87
2023/06/07 17:15:53;;;;;;;2.25;1.60;;;;;;;;;;12910497;22;20024;-87
2023/06/07 17:20:56;;;;;;;1.67;1.57;;;;;;;;;;12882295;23;20031;-87
2023/06/07 17:26:00;;;;;;;1.75;1.20;;;;;;;;;;12909388;22;20070;-89
2023/06/07 17:31:05;;;;;;;1.40;1.10;;;;;;;;;;12881248;23;20024;-90
2023/06/07 17:36:10;;;;;;;1.60;1.10;;;;;;;;;;12882912;22;20020;-89
2023/06/07 17:41:13;;;;;;;2.20;1.38;;;;;;;;;;12881943;23;20023;-89
2023/06/07 17:46:18;;;;;;;1.80;1.45;;;;;;;;;;12880796;22;20103;-88
2023/06/07 17:51:22;;;;;;;2.63;1.30;;;;;;;;;;12911358;23;20027;-88
2023/06/07 17:56:27;;;;;;;1.50;1.30;;;;;;;;;;12858388;22;20042;-87
2023/06/07 18:01:32;;;;;;;1.40;1.25;;;;;;;;;;12909675;23;20043;-88
2023/06/07 18:06:35;;;;;;;1.40;1.30;;;;;;;;;;12880721;22;20024;-87
2023/06/07 18:11:39;;;;;;;1.73;1.50;;;;;;;;;;12910365;23;20562;-88
2023/06/07 18:16:45;;;;;;;1.30;1.20;;;;;;;;;;12907695;22;20024;-90
2023/06/07 18:21:48;;;;;;;;;;;;;;;;;;12909229;23;20024;-87
2023/06/07 18:26:52;;;;;;;1.35;1.25;;;;;;;;;;12909416;22;19931;-88
2023/06/07 18:31:57;;;;;;;1.40;1.27;;;;;;;;;;12880335;23;20043;-88
2023/06/07 18:37:00;;;;;;;1.90;1.33;;;;;;;;;;12905386;22;20086;-90
2023/06/07 18:42:04;;;;;;;1.70;1.60;;;;;;;;;;12875420;23;20020;-88
2023/06/07 18:47:09;;;;;;;1.63;1.35;;;;;;;;;;12874328;23;20028;-86
2023/06/07 18:52:12;;;;;;;1.55;1.45;;;;;;;;;;12898726;23;20047;-86
2023/06/07 18:57:16;;;;;;;6.57;1.73;;;;;;;;;;12872524;23;20028;-86
2023/06/07 19:02:23;;;;;;;1.70;1.58;;;;;;;;;;12872750;23;20634;-86
2023/06/07 19:07:26;;;;;;;2.00;1.80;;;;;;;;;;12898197;22;20411;-85
2023/06/07 19:12:30;;;;;;;1.58;1.48;;;;;;;;;;12872848;23;20016;-85
2023/06/07 19:17:34;;;;;;;2.15;1.85;;;;;;;;;;12870366;23;20414;-85
2023/06/07 19:22:38;;;;;;;2.92;1.60;;;;;;;;;;12869274;23;20640;-86
2023/06/07 19:27:43;;;;;;;2.22;1.85;;;;;;;;;;12907077;22;20490;-86
2023/06/07 19:32:49;;;;;;;3.13;2.00;;;;;;;;;;12873353;23;20078;-86
2023/06/07 19:37:54;;;;;;;2.55;1.92;;;;;;;;;;12893059;22;20021;-86
2023/06/07 19:42:57;;;;;;;2.42;1.77;;;;;;;;;;12866719;23;20020;-87
2023/06/07 19:48:02;;;;;;;1.90;1.70;;;;;;;;;;12874908;23;20471;-87
2023/06/07 19:53:06;;;;;;;2.00;1.70;;;;;;;;;;12912392;23;20016;-87
2023/06/07 19:58:09;;;;;;;2.20;2.00;;;;;;;;;;12877903;23;20031;-87
2023/06/07 20:03:14;;;;;;;2.72;2.30;;;;;;;;;;12878031;23;20051;-87
2023/06/07 20:08:18;;;;;;;3.10;1.92;;;;;;;;;;12903528;22;20028;-86
2023/06/07 20:13:23;;;;;;;2.10;1.90;;;;;;;;;;12873913;23;20021;-89
2023/06/07 20:18:27;;;;;;;3.13;2.27;;;;;;;;;;12906557;22;20024;-89
2023/06/07 20:23:31;;;;;;;1.75;1.65;;;;;;;;;;12879929;23;20031;-89
2023/06/07 20:28:35;;;;;;;2.67;1.77;;;;;;;;;;12880139;23;20024;-89
2023/06/07 20:39:17;;;;;;;2.15;1.88;;;;;;;;;;12805830;22;20024;-85
2023/06/07 20:44:21;;;;;;;2.05;1.80;;;;;;;;;;12818532;23;20363;-84
2023/06/07 20:49:24;;;;;;;3.28;2.28;;;;;;;;;;12896401;23;20384;-85
2023/06/07 20:54:29;;;;;;;2.40;2.10;;;;;;;;;;12872703;22;20023;-85
2023/06/07 20:59:34;;;;;;;2.38;1.90;;;;;;;;;;12873257;23;20390;-85
2023/06/07 21:04:38;;;;;;;3.10;1.98;;;;;;;;;;12902416;22;20020;-85
2023/06/07 21:09:43;;;;;;;2.10;1.90;;;;;;;;;;12864821;23;20020;-84
2023/06/07 21:14:46;;;;;;;2.67;2.10;;;;;;;;;;12868044;22;20016;-84
2023/06/07 21:19:52;;;;;;;2.45;2.13;;;;;;;;;;12871573;23;20028;-84
2023/06/07 21:24:57;;;;;;;3.28;2.30;;;;;;;;;;12869431;22;20024;-85
2023/06/07 21:30:00;;;;;;;2.58;2.13;;;;;;;;;;12871997;23;20028;-84
2023/06/07 21:35:04;;;;;;;2.05;1.65;;;;;;;;;;12869196;22;20020;-84
2023/06/07 21:40:10;;;;;;;2.70;2.15;;;;;;;;;;12872388;23;20357;-85
2023/06/07 21:45:14;;;;;;;2.20;2.00;;;;;;;;;;12871412;22;20020;-84
2023/06/07 21:50:18;;;;;;;2.80;2.30;;;;;;;;;;12895412;23;20024;-85
2023/06/07 21:55:23;;;;;;;2.63;2.35;;;;;;;;;;12870632;22;20462;-85
2023/06/07 22:00:27;;;;;;;3.07;2.33;;;;;;;;;;12872787;23;20078;-85
2023/06/07 22:05:30;;;;;;;3.35;2.60;;;;;;;;;;12867776;22;20020;-84
2023/06/07 22:10:35;;;;;;;2.67;2.10;;;;;;;;;;12875026;23;20082;-85
2023/06/07 22:15:39;;;;;;;3.17;2.17;;;;;;;;;;12869562;22;20020;-85
2023/06/07 22:20:44;;;;;;;2.88;2.05;;;;;;;;;;12899448;23;20020;-85
2023/06/07 22:25:49;;;;;;;3.40;2.38;;;;;;;;;;12893217;22;20039;-85
2023/06/07 22:30:53;;;;;;;2.70;2.40;;;;;;;;;;12871380;23;20062;-85
2023/06/07 22:35:57;;;;;;;3.60;2.45;;;;;;;;;;12893986;22;20402;-85
2023/06/07 22:41:01;;;;;;;2.65;2.45;;;;;;;;;;12873090;23;20460;-85
2023/06/07 22:46:06;;;;;;;2.33;2.13;;;;;;;;;;12903333;22;20047;-85
2023/06/07 22:51:09;;;;;;;2.45;1.90;;;;;;;;;;12903436;23;20082;-85
2023/06/07 22:56:14;;;;;;;2.13;1.90;;;;;;;;;;12875129;22;20020;-85
2023/06/07 23:01:18;;;;;;;3.03;2.00;;;;;;;;;;12876213;23;20079;-85
2023/06/07 23:06:31;;;;;;;4.90;2.55;;;;;;;;;;12875497;22;20023;-85
2023/06/07 23:11:37;;;;;;;3.08;2.10;;;;;;;;;;12875953;23;20364;-85
2023/06/07 23:16:40;;;;;;;3.10;2.50;;;;;;;;;;12873064;23;20653;-85
2023/06/07 23:21:46;;;;;;;2.30;2.10;;;;;;;;;;12874161;23;20402;-85
2023/06/07 23:26:52;;;;;;;2.67;2.20;;;;;;;;;;12902734;22;20032;-85
2023/06/07 23:31:56;;;;;;;2.20;2.00;;;;;;;;;;12876318;23;20028;-84
2023/06/07 23:36:59;;;;;;;3.22;1.90;;;;;;;;;;12913985;22;20093;-85
2023/06/07 23:42:05;;;;;;;3.85;2.38;;;;;;;;;;12876116;23;20089;-84
2023/06/07 23:47:09;;;;;;;2.70;2.38;;;;;;;;;;12879002;23;20267;-87
2023/06/07 23:52:13;;;;;;;2.95;1.95;;;;;;;;;;12908771;23;20024;-89
2023/06/07 23:57:17;;;;;;;2.40;2.20;;;;;;;;;;12879219;23;20028;-87
